Time;durP1;ratioP1;P1;durP2;ratioP2;P2;SDS_P1;SDS_P2;PMS_P1;PMS_P2;Temp;Humidity;BMP_temperature;BMP_pressure;BME280_temperature;BME280_humidity;BME280_pressure;Samples;Min_cycle;Max_cycle;Signal;HPM_P1;HPM_P2
2023/02/04 00:00:19;;;;;;;6.50;2.40;;;5.40;99.90;;;;;;4953555;28;20293;-51
2023/02/04 00:02:46;;;;;;;6.23;2.23;;;5.20;99.90;;;;;;4954215;28;20217;-54
2023/02/04 00:05:12;;;;;;;9.73;2.67;;;5.10;99.90;;;;;;4953604;28;20206;-54
2023/02/04 00:07:38;;;;;;;5.40;2.43;;;5.30;99.90;;;;;;4954038;28;20209;-54
2023/02/04 00:10:05;;;;;;;9.73;2.30;;;5.10;99.90;;;;;;4954125;28;20179;-55
2023/02/04 00:12:32;;;;;;;6.10;2.50;;;;;;;;;;4954128;28;20585;-56
2023/02/04 00:14:58;;;;;;;7.90;2.57;;;5.20;99.90;;;;;;4953715;28;20577;-53
2023/02/04 00:17:24;;;;;;;4.50;2.00;;;;;;;;;;4953929;29;20202;-52
2023/02/04 00:19:50;;;;;;;6.53;2.47;;;;;;;;;;4953897;29;20765;-56
2023/02/04 00:22:16;;;;;;;7.23;2.03;;;;;;;;;;4953895;28;20597;-55
2023/02/04 00:24:47;;;;;;;7.00;2.47;;;5.50;99.90;;;;;;4953564;28;20186;-52
2023/02/04 00:27:12;;;;;;;5.27;2.23;;;5.50;99.90;;;;;;4953878;28;20759;-54
2023/02/04 00:29:38;;;;;;;4.93;2.30;;;;;;;;;;4953911;28;20198;-56
2023/02/04 00:32:04;;;;;;;6.07;2.20;;;;;;;;;;4953765;29;20182;-54
2023/02/04 00:34:30;;;;;;;7.07;2.80;;;;;;;;;;4953626;29;20285;-51
2023/02/04 00:36:56;;;;;;;6.07;2.40;;;;;;;;;;4953432;29;20237;-51
2023/02/04 00:39:22;;;;;;;7.70;2.67;;;5.50;99.90;;;;;;4953658;29;20198;-53
2023/02/04 00:41:47;;;;;;;6.30;2.30;;;5.40;99.90;;;;;;4953825;29;20229;-52
2023/02/04 00:44:13;;;;;;;10.43;3.43;;;5.40;99.90;;;;;;4953656;28;20178;-52
2023/02/04 00:46:40;;;;;;;8.90;2.70;;;5.30;99.90;;;;;;4953140;29;20244;-53
2023/02/04 00:49:09;;;;;;;7.33;2.93;;;4.90;99.90;;;;;;4953619;28;20546;-52
2023/02/04 00:51:36;;;;;;;6.70;2.30;;;4.90;99.90;;;;;;4953693;28;20174;-53
2023/02/04 00:54:01;;;;;;;6.43;2.07;;;5.30;99.90;;;;;;4953561;28;20202;-52
2023/02/04 00:56:27;;;;;;;5.43;2.13;;;;;;;;;;4953008;28;20192;-55
2023/02/04 00:58:53;;;;;;;5.80;2.20;;;5.30;99.90;;;;;;4953326;28;20171;-56
2023/02/04 01:01:18;;;;;;;8.93;2.47;;;5.20;99.90;;;;;;4952299;28;20174;-51
2023/02/04 01:03:44;;;;;;;6.77;2.40;;;5.40;99.90;;;;;;4953327;28;20209;-52
2023/02/04 01:06:10;;;;;;;8.10;2.40;;;5.20;99.90;;;;;;4953312;28;20175;-55
2023/02/04 01:08:36;;;;;;;4.33;2.20;;;;;;;;;;4953268;28;20194;-55
2023/02/04 01:11:02;;;;;;;4.90;2.30;;;;;;;;;;4955575;28;20216;-52
2023/02/04 01:13:28;;;;;;;7.07;2.40;;;;;;;;;;4954941;28;20285;-53
2023/02/04 01:15:54;;;;;;;8.00;2.30;;;;;;;;;;4956471;28;20269;-56
2023/02/04 01:18:20;;;;;;;6.47;2.30;;;;;;;;;;4956888;28;20577;-55
2023/02/04 01:20:46;;;;;;;6.17;2.10;;;;;;;;;;4959825;28;20181;-52
2023/02/04 01:23:12;;;;;;;6.80;2.57;;;5.40;99.90;;;;;;4976051;28;20178;-55
2023/02/04 01:25:37;;;;;;;8.33;2.30;;;5.20;99.90;;;;;;4976093;28;20177;-49
2023/02/04 01:28:03;;;;;;;6.93;2.77;;;5.20;99.90;;;;;;4976201;28;20280;-52
2023/02/04 01:30:29;;;;;;;4.33;2.00;;;;;;;;;;4959210;28;20245;-54
2023/02/04 01:32:55;;;;;;;6.53;2.30;;;;;;;;;;4956595;28;20182;-55
2023/02/04 01:35:21;;;;;;;6.23;2.30;;;4.80;99.90;;;;;;4971443;28;20175;-51
2023/02/04 01:37:46;;;;;;;5.43;2.57;;;;;;;;;;4956777;29;20194;-52
2023/02/04 01:40:12;;;;;;;7.53;2.80;;;4.90;99.90;;;;;;4956793;28;20233;-52
2023/02/04 01:42:38;;;;;;;8.20;2.67;;;5.30;99.90;;;;;;4956738;28;20258;-51
2023/02/04 01:45:05;;;;;;;6.67;3.07;;;4.90;99.90;;;;;;4956432;28;20229;-51
2023/02/04 01:47:31;;;;;;;7.37;2.90;;;5.20;99.90;;;;;;4956198;28;20697;-51
2023/02/04 01:49:57;;;;;;;9.57;2.53;;;4.70;99.90;;;;;;4963359;28;20174;-53
2023/02/04 01:52:23;;;;;;;7.30;2.60;;;5.10;99.90;;;;;;4967833;28;20192;-52
2023/02/04 01:54:50;;;;;;;8.40;2.67;;;4.90;99.90;;;;;;4975493;28;20568;-51
2023/02/04 01:57:16;;;;;;;6.37;2.70;;;5.40;99.90;;;;;;4975787;28;20201;-51
2023/02/04 01:59:44;;;;;;;6.73;2.53;;;5.30;99.90;;;;;;4975734;28;20189;-51
2023/02/04 02:02:28;;;;;;;9.63;2.67;;;;;;;;;;4975913;28;20588;-51
2023/02/04 02:04:54;;;;;;;7.60;2.80;;;5.10;99.90;;;;;;4975447;28;20865;-52
2023/02/04 02:07:19;;;;;;;7.93;2.83;;;4.90;99.90;;;;;;4975571;28;20193;-51
2023/02/04 02:09:45;;;;;;;10.53;2.77;;;5.00;99.90;;;;;;4975599;28;20185;-52
2023/02/04 02:12:11;;;;;;;13.40;3.20;;;;;;;;;;4975483;28;20264;-54
2023/02/04 02:14:36;;;;;;;10.60;3.10;;;5.20;99.90;;;;;;4975433;28;20918;-51
2023/02/04 02:17:02;;;;;;;8.80;2.87;;;4.80;99.90;;;;;;4975102;28;20198;-51
2023/02/04 02:19:34;;;;;;;5.93;2.30;;;5.00;99.90;;;;;;4975445;28;20291;-51
2023/02/04 02:22:26;;;;;;;7.23;2.63;;;;;;;;;;4955357;28;20242;-51
2023/02/04 02:24:52;;;;;;;6.67;2.40;;;5.00;99.90;;;;;;4952975;28;20202;-51
2023/02/04 02:27:18;;;;;;;7.27;2.87;;;;;;;;;;4955848;29;20736;-53
2023/02/04 02:29:44;;;;;;;5.20;2.33;;;;;;;;;;4955974;29;20210;-54
2023/02/04 02:32:12;;;;;;;8.30;2.40;;;4.90;99.90;;;;;;4955840;29;20206;-51
2023/02/04 02:34:38;;;;;;;9.70;3.07;;;4.80;99.90;;;;;;4956531;28;20210;-54
2023/02/04 02:37:07;;;;;;;9.03;2.87;;;5.00;99.90;;;;;;4954365;28;20215;-54
2023/02/04 02:39:33;;;;;;;10.43;2.87;;;5.20;99.90;;;;;;4958037;28;20181;-53
2023/02/04 02:42:00;;;;;;;13.23;3.00;;;;;;;;;;4974867;28;20193;-53
2023/02/04 02:44:26;;;;;;;7.07;2.90;;;5.20;99.90;;;;;;4966540;28;20265;-55
2023/02/04 02:46:53;;;;;;;6.93;2.60;;;5.20;99.90;;;;;;4954919;28;20241;-51
2023/02/04 02:49:19;;;;;;;4.23;2.27;;;4.90;99.90;;;;;;4955657;28;20171;-51
2023/02/04 02:51:46;;;;;;;5.47;2.50;;;4.90;99.90;;;;;;4955422;28;20185;-53
2023/02/04 02:54:29;;;;;;;6.70;2.40;;;4.90;99.90;;;;;;4953850;28;20210;-51
2023/02/04 02:56:55;;;;;;;14.60;3.03;;;5.40;99.90;;;;;;4955221;28;20191;-52
2023/02/04 02:59:22;;;;;;;5.37;2.03;;;4.90;99.90;;;;;;4955378;29;20179;-52
2023/02/04 03:01:54;;;;;;;8.27;2.47;;;5.00;99.90;;;;;;4955379;28;20230;-55
2023/02/04 03:04:21;;;;;;;7.47;2.10;;;4.70;99.90;;;;;;4955298;28;20557;-55
2023/02/04 03:06:47;;;;;;;7.67;2.60;;;4.70;99.90;;;;;;4954868;28;20198;-52
2023/02/04 03:09:12;;;;;;;6.00;2.57;;;4.90;99.90;;;;;;4955022;28;20213;-53
2023/02/04 03:11:38;;;;;;;7.83;2.73;;;4.70;99.90;;;;;;4954929;28;20269;-52
2023/02/04 03:14:04;;;;;;;8.07;2.50;;;4.80;99.90;;;;;;4955059;28;20227;-54
2023/02/04 03:16:33;;;;;;;9.17;2.87;;;4.90;99.90;;;;;;4954711;28;20166;-54
2023/02/04 03:18:59;;;;;;;7.07;2.67;;;4.90;99.90;;;;;;4954999;28;20632;-54
2023/02/04 03:21:26;;;;;;;7.53;2.77;;;5.10;99.90;;;;;;4954984;28;20657;-51
2023/02/04 03:23:55;;;;;;;6.07;2.13;;;4.80;99.90;;;;;;4954809;28;20245;-51
2023/02/04 03:26:21;;;;;;;7.97;2.63;;;;;;;;;;4954582;28;20175;-54
2023/02/04 03:28:47;;;;;;;8.53;2.50;;;;;;;;;;4954693;28;20202;-55
2023/02/04 03:31:12;;;;;;;5.40;2.43;;;5.10;99.90;;;;;;4954600;29;20295;-51
2023/02/04 03:33:38;;;;;;;8.53;2.87;;;5.00;99.90;;;;;;4953793;28;20203;-51
2023/02/04 03:36:04;;;;;;;10.47;3.13;;;4.90;99.90;;;;;;4954414;28;20205;-51
2023/02/04 03:38:30;;;;;;;10.00;3.07;;;;;;;;;;4954499;28;20653;-53
2023/02/04 03:40:56;;;;;;;6.20;1.90;;;;;;;;;;4954588;28;20225;-52
2023/02/04 03:43:22;;;;;;;5.63;2.43;;;;;;;;;;4954917;28;20191;-55
2023/02/04 03:45:47;;;;;;;7.20;2.43;;;;;;;;;;4973249;28;20596;-54
2023/02/04 03:48:13;;;;;;;7.23;2.30;;;;;;;;;;4973510;28;20291;-52
2023/02/04 03:50:39;;;;;;;7.93;2.83;;;4.80;99.90;;;;;;4973766;28;20548;-51
2023/02/04 03:53:05;;;;;;;7.67;3.17;;;5.00;99.90;;;;;;4973645;28;20181;-51
2023/02/04 03:55:31;;;;;;;6.47;2.20;;;4.90;99.90;;;;;;4973372;28;20170;-50
2023/02/04 03:57:57;;;;;;;7.13;2.53;;;4.70;99.90;;;;;;4973524;28;20553;-52
2023/02/04 04:00:23;;;;;;;6.73;2.33;;;4.80;99.90;;;;;;4956488;28;20189;-53
2023/02/04 04:02:49;;;;;;;5.27;2.40;;;;;;;;;;4953877;28;20653;-52
2023/02/04 04:05:15;;;;;;;12.57;2.90;;;;;;;;;;4953575;28;20186;-54
2023/02/04 04:07:41;;;;;;;8.63;2.97;;;;;;;;;;4956647;28;20684;-55
2023/02/04 04:10:07;;;;;;;6.80;2.17;;;;;;;;;;4973300;28;20189;-52
2023/02/04 04:12:33;;;;;;;6.17;2.47;;;;;;;;;;4973298;28;20735;-55
2023/02/04 04:14:59;;;;;;;7.30;2.30;;;;;;;;;;4972979;28;20202;-52
2023/02/04 04:17:24;;;;;;;6.73;2.47;;;4.50;99.90;;;;;;4959105;28;20271;-52
2023/02/04 04:19:50;;;;;;;7.13;2.40;;;4.80;99.90;;;;;;4953915;28;20650;-52
2023/02/04 04:22:15;;;;;;;6.43;2.40;;;4.30;99.90;;;;;;4953990;29;20206;-51
2023/02/04 04:24:41;;;;;;;5.43;2.17;;;;;;;;;;4953774;29;20186;-51
2023/02/04 04:27:07;;;;;;;7.73;2.50;;;4.60;99.90;;;;;;4953705;28;20901;-52
2023/02/04 04:29:32;;;;;;;7.93;2.73;;;4.60;99.90;;;;;;4953801;29;20178;-51
2023/02/04 04:31:58;;;;;;;7.10;2.20;;;4.40;99.90;;;;;;4953824;29;20174;-53
2023/02/04 04:34:24;;;;;;;10.77;2.83;;;;;;;;;;4953405;28;20217;-53
2023/02/04 04:36:50;;;;;;;6.63;2.43;;;;;;;;;;4954875;28;20234;-55
2023/02/04 04:39:15;;;;;;;6.87;2.23;;;4.70;99.90;;;;;;4961487;28;20672;-52
2023/02/04 04:41:41;;;;;;;7.57;2.20;;;4.60;99.90;;;;;;4973075;28;20268;-51
2023/02/04 04:44:07;;;;;;;7.67;2.50;;;;;;;;;;4956661;28;20292;-52
2023/02/04 04:46:33;;;;;;;6.40;2.17;;;4.90;99.90;;;;;;4952920;28;20549;-54
2023/02/04 04:48:59;;;;;;;5.87;2.33;;;;;;;;;;4952310;29;20182;-56
2023/02/04 04:51:24;;;;;;;5.07;2.27;;;;;;;;;;4953683;29;20174;-55
2023/02/04 04:53:50;;;;;;;7.77;2.37;;;4.90;99.90;;;;;;4953575;29;20202;-52
2023/02/04 04:56:17;;;;;;;4.83;1.93;;;;;;;;;;4953334;28;20182;-50
2023/02/04 04:58:43;;;;;;;7.43;2.20;;;4.40;99.90;;;;;;4953168;28;20669;-51
2023/02/04 05:01:09;;;;;;;7.50;2.20;;;;;;;;;;4953442;28;20213;-55
2023/02/04 05:03:35;;;;;;;9.97;2.37;;;;;;;;;;4953545;29;20190;-51
2023/02/04 05:06:00;;;;;;;5.70;2.33;;;4.90;99.90;;;;;;4953221;28;20174;-53
2023/02/04 05:08:26;;;;;;;5.10;1.90;;;4.90;99.90;;;;;;4953173;28;20273;-51
2023/02/04 05:10:52;;;;;;;6.90;1.87;;;4.80;99.90;;;;;;4953420;28;20204;-53
2023/02/04 05:13:18;;;;;;;6.37;2.47;;;;;;;;;;4953292;28;20202;-54
2023/02/04 05:15:43;;;;;;;9.47;2.73;;;4.90;99.90;;;;;;4953004;29;20209;-53
2023/02/04 05:18:09;;;;;;;6.03;2.13;;;4.80;99.90;;;;;;4953367;29;20195;-51
2023/02/04 05:20:34;;;;;;;3.70;1.93;;;4.90;99.90;;;;;;4953439;29;20182;-52
2023/02/04 05:23:00;;;;;;;5.37;2.30;;;;;;;;;;4953316;29;20628;-54
2023/02/04 05:25:27;;;;;;;6.30;2.27;;;4.70;99.90;;;;;;4953065;29;20202;-55
2023/02/04 05:27:53;;;;;;;7.37;2.20;;;4.60;99.90;;;;;;4953197;28;20234;-51
2023/02/04 05:30:19;;;;;;;9.10;3.03;;;4.90;99.90;;;;;;4953101;28;20273;-53
2023/02/04 05:32:45;;;;;;;7.93;2.30;;;;;;;;;;4953338;28;20186;-55
2023/02/04 05:35:11;;;;;;;7.73;2.00;;;;;;;;;;4952879;29;20206;-55
2023/02/04 05:37:37;;;;;;;7.10;2.47;;;;;;;;;;4953146;28;20198;-55
2023/02/04 05:40:04;;;;;;;5.50;2.10;;;4.40;99.90;;;;;;4953171;29;20183;-55
2023/02/04 05:42:29;;;;;;;4.67;1.87;;;4.30;99.90;;;;;;4953133;28;20218;-54
2023/02/04 05:44:55;;;;;;;5.13;2.10;;;;;;;;;;4952420;29;20198;-55
2023/02/04 05:47:21;;;;;;;5.60;2.20;;;;;;;;;;4952956;29;20258;-55
2023/02/04 05:49:47;;;;;;;3.03;1.70;;;4.40;99.90;;;;;;4953161;28;20202;-53
2023/02/04 05:52:12;;;;;;;6.30;2.23;;;4.60;99.90;;;;;;4953095;28;20174;-55
2023/02/04 05:54:38;;;;;;;4.07;1.77;;;4.40;99.90;;;;;;4953059;29;20722;-53
2023/02/04 05:57:04;;;;;;;4.30;1.57;;;;;;;;;;4953119;28;20701;-57
2023/02/04 05:59:30;;;;;;;3.20;1.83;;;;;;;;;;4956410;29;20279;-53
2023/02/04 06:01:56;;;;;;;7.43;1.83;;;;;;;;;;4956406;28;20626;-57
2023/02/04 06:04:21;;;;;;;6.70;1.93;;;4.90;99.90;;;;;;4956337;28;20202;-53
2023/02/04 06:06:47;;;;;;;6.80;2.10;;;4.90;99.90;;;;;;4954661;29;20195;-53
2023/02/04 06:09:12;;;;;;;6.33;2.20;;;5.10;99.90;;;;;;4956324;28;20174;-56
2023/02/04 06:11:38;;;;;;;3.67;1.63;;;;;;;;;;4956186;28;20253;-55
2023/02/04 06:14:04;;;;;;;5.90;1.80;;;5.30;99.90;;;;;;4956142;29;20209;-51
2023/02/04 06:16:30;;;;;;;5.53;1.83;;;6.10;99.90;;;;;;4955826;28;20799;-55
2023/02/04 06:18:55;;;;;;;3.90;1.83;;;5.80;99.90;;;;;;4967322;28;20206;-55
2023/02/04 06:21:21;;;;;;;5.33;1.87;;;;;;;;;;4967285;28;20186;-55
2023/02/04 06:23:47;;;;;;;3.33;1.80;;;;;;;;;;4975401;28;20178;-55
2023/02/04 06:26:13;;;;;;;5.63;1.60;;;;;;;;;;4974947;28;20177;-55
2023/02/04 06:28:39;;;;;;;4.07;1.73;;;;;;;;;;4975185;28;20872;-53
2023/02/04 06:31:04;;;;;;;2.97;1.57;;;5.60;99.90;;;;;;4975169;28;20225;-56
2023/02/04 06:33:30;;;;;;;5.13;1.70;;;5.30;99.90;;;;;;4975023;28;20256;-53
2023/02/04 06:35:56;;;;;;;4.50;1.60;;;;;;;;;;4974662;28;20201;-56
2023/02/04 06:38:21;;;;;;;2.50;1.57;;;5.10;99.90;;;;;;4974813;28;20193;-52
2023/02/04 06:40:48;;;;;;;3.07;1.10;;;5.10;99.90;;;;;;4973600;28;20198;-53
2023/02/04 06:43:14;;;;;;;3.70;1.50;;;4.90;99.90;;;;;;4974841;28;20665;-53
2023/02/04 06:45:40;;;;;;;2.80;1.17;;;5.20;99.90;;;;;;4974723;28;20170;-53
2023/02/04 06:48:06;;;;;;;2.07;1.17;;;;;;;;;;4974545;28;20213;-54
2023/02/04 06:50:32;;;;;;;2.27;1.30;;;;;;;;;;4973572;28;20181;-56
2023/02/04 06:52:58;;;;;;;4.40;1.00;;;5.10;99.90;;;;;;4959693;28;20189;-55
2023/02/04 06:55:23;;;;;;;2.47;1.03;;;4.90;99.90;;;;;;4953568;28;20213;-52
2023/02/04 06:57:49;;;;;;;1.30;1.03;;;5.10;99.90;;;;;;4949357;28;20684;-55
2023/02/04 07:00:15;;;;;;;1.87;1.00;;;;;;;;;;4950269;28;20659;-56
2023/02/04 07:02:41;;;;;;;2.47;1.10;;;;;;;;;;4954003;28;20654;-54
2023/02/04 07:05:07;;;;;;;1.50;1.07;;;;;;;;;;4954444;28;20653;-54
2023/02/04 07:07:33;;;;;;;3.03;1.10;;;5.90;99.90;;;;;;4950116;28;20276;-54
2023/02/04 07:09:59;;;;;;;3.07;1.30;;;;;;;;;;4953753;28;20282;-53
2023/02/04 07:12:25;;;;;;;1.40;1.30;;;5.90;99.90;;;;;;4948845;29;20215;-52
2023/02/04 07:14:50;;;;;;;2.80;1.40;;;6.00;99.90;;;;;;4951939;29;20206;-48
2023/02/04 07:17:16;;;;;;;1.57;1.20;;;;;;;;;;4953627;29;20685;-52
2023/02/04 07:19:42;;;;;;;1.77;1.57;;;7.10;99.90;;;;;;4954301;28;20181;-52
2023/02/04 07:22:07;;;;;;;1.00;0.90;;;;;;;;;;4954446;28;20182;-51
2023/02/04 07:24:34;;;;;;;0.97;0.90;;;8.90;99.90;;;;;;4951316;28;20187;-50
2023/02/04 07:26:59;;;;;;;2.50;1.20;;;8.90;99.90;;;;;;4950424;28;20289;-52
2023/02/04 07:29:25;;;;;;;1.20;1.00;;;8.40;99.90;;;;;;4951704;28;20294;-54
2023/02/04 07:31:51;;;;;;;1.50;1.00;;;8.50;99.90;;;;;;4950186;29;20218;-52
2023/02/04 07:34:17;;;;;;;0.60;0.60;;;8.10;99.90;;;;;;4950632;28;20203;-53
2023/02/04 07:36:43;;;;;;;0.80;0.80;;;8.00;99.90;;;;;;4951063;28;20576;-53
2023/02/04 07:39:09;;;;;;;0.70;0.70;;;7.90;99.90;;;;;;4956952;28;20600;-53
2023/02/04 07:41:35;;;;;;;0.83;0.70;;;7.00;99.90;;;;;;4951162;28;20198;-52
2023/02/04 07:44:01;;;;;;;1.00;0.80;;;;;;;;;;4953399;28;20194;-54
2023/02/04 07:46:27;;;;;;;0.87;0.70;;;;;;;;;;4955341;28;20187;-55
2023/02/04 07:48:53;;;;;;;1.10;0.80;;;;;;;;;;4953698;28;20280;-56
2023/02/04 07:51:19;;;;;;;0.63;0.63;;;;;;;;;;4960818;28;20276;-53
2023/02/04 07:53:45;;;;;;;0.80;0.80;;;;;;;;;;4954281;28;20234;-53
2023/02/04 07:56:10;;;;;;;0.90;0.70;;;6.30;99.90;;;;;;4953751;28;20183;-52
2023/02/04 07:58:36;;;;;;;0.80;0.80;;;6.20;99.90;;;;;;4950689;28;20206;-52
2023/02/04 08:01:02;;;;;;;0.70;0.70;;;5.80;99.90;;;;;;4953180;28;20312;-55
2023/02/04 08:03:28;;;;;;;0.80;0.80;;;6.10;99.90;;;;;;4950772;28;20182;-52
2023/02/04 08:05:54;;;;;;;0.87;0.87;;;;;;;;;;4954434;28;20193;-53
2023/02/04 08:08:20;;;;;;;1.83;0.70;;;;;;;;;;4949486;28;20202;-55
2023/02/04 08:10:46;;;;;;;0.70;0.70;;;10.60;99.90;;;;;;4949213;29;20262;-53
2023/02/04 08:13:12;;;;;;;0.40;0.40;;;;;;;;;;4950580;28;20210;-56
2023/02/04 08:15:38;;;;;;;0.83;0.83;;;;;;;;;;4954944;28;20178;-55
2023/02/04 08:18:04;;;;;;;0.70;0.70;;;;;;;;;;4948950;28;20845;-55
2023/02/04 08:20:31;;;;;;;0.83;0.80;;;;;;;;;;4949742;28;20183;-53
2023/02/04 08:22:56;;;;;;;1.00;0.90;;;;;;;;;;4950301;28;20197;-55
2023/02/04 08:25:23;;;;;;;1.33;1.17;;;;;;;;;;4954076;28;20187;-51
2023/02/04 08:27:49;;;;;;;1.17;1.07;;;;;;;;;;4950719;29;20864;-51
2023/02/04 08:30:14;;;;;;;1.40;0.97;;;12.50;99.90;;;;;;4950999;28;20224;-50
2023/02/04 08:32:40;;;;;;;0.97;0.97;;;12.60;99.90;;;;;;4948058;28;20179;-54
2023/02/04 08:35:06;;;;;;;0.63;0.63;;;12.50;99.90;;;;;;4947952;28;20210;-54
2023/02/04 08:37:32;;;;;;;0.80;0.77;;;14.30;99.90;;;;;;4944869;28;20199;-52
2023/02/04 08:39:57;;;;;;;0.70;0.70;;;16.00;98.00;;;;;;4948012;28;20261;-54
2023/02/04 08:42:23;;;;;;;0.90;0.83;;;17.00;97.40;;;;;;4952531;28;20182;-55
2023/02/04 08:44:49;;;;;;;1.17;0.60;;;;;;;;;;4946457;28;20191;-54
2023/02/04 08:47:15;;;;;;;0.70;0.70;;;;;;;;;;4951905;28;20309;-55
2023/02/04 08:49:40;;;;;;;0.90;0.80;;;16.50;93.10;;;;;;4955351;28;21061;-54
2023/02/04 08:52:07;;;;;;;1.00;0.60;;;;;;;;;;4952688;28;20218;-55
2023/02/04 08:54:34;;;;;;;11.17;3.93;;;16.80;95.50;;;;;;4953787;28;20230;-55
2023/02/04 08:57:00;;;;;;;0.70;0.70;;;16.20;87.10;;;;;;4953213;28;20206;-54
2023/02/04 08:59:26;;;;;;;0.70;0.70;;;15.30;96.40;;;;;;4953300;28;20649;-53
2023/02/04 09:01:51;;;;;;;1.30;0.77;;;14.90;97.50;;;;;;4955507;28;20781;-52
2023/02/04 09:04:18;;;;;;;1.67;0.90;;;13.60;97.60;;;;;;4953077;28;20213;-52
2023/02/04 09:06:45;;;;;;;1.27;0.90;;;;;;;;;;4952598;28;20202;-55
2023/02/04 09:09:11;;;;;;;0.80;0.80;;;;;;;;;;4953062;28;20190;-56
2023/02/04 09:11:37;;;;;;;1.13;0.87;;;;;;;;;;4952079;28;20231;-57
2023/02/04 09:14:03;;;;;;;0.83;0.83;;;12.30;99.90;;;;;;4948532;28;20308;-52
2023/02/04 09:16:28;;;;;;;0.77;0.77;;;11.80;99.90;;;;;;4952045;28;20186;-53
2023/02/04 09:18:54;;;;;;;1.93;0.70;;;;;;;;;;4948764;28;20178;-55
2023/02/04 09:21:20;;;;;;;1.47;0.87;;;10.60;99.90;;;;;;4947731;28;20194;-52
2023/02/04 09:23:47;;;;;;;1.20;1.10;;;;;;;;;;4950046;28;20245;-53
2023/02/04 09:26:13;;;;;;;1.10;0.80;;;10.60;99.90;;;;;;4946006;28;20226;-53
2023/02/04 09:28:38;;;;;;;1.30;1.10;;;10.20;99.90;;;;;;4951148;28;20249;-52
2023/02/04 09:31:05;;;;;;;1.20;1.10;;;9.70;99.90;;;;;;4952852;28;20186;-51
2023/02/04 09:33:31;;;;;;;0.83;0.83;;;9.70;99.90;;;;;;4952456;28;20229;-51
2023/02/04 09:35:57;;;;;;;0.80;0.80;;;9.50;99.90;;;;;;4954792;28;20202;-52
2023/02/04 09:38:23;;;;;;;1.03;0.70;;;9.00;97.40;;;;;;4952685;28;20624;-54
2023/02/04 09:40:54;;;;;;;1.37;0.93;;;8.80;99.90;;;;;;4953158;28;20194;-51
2023/02/04 09:43:26;;;;;;;0.70;0.70;;;8.60;99.90;;;;;;4954130;28;20183;-52
2023/02/04 09:45:53;;;;;;;0.70;0.70;;;8.40;99.10;;;;;;4956634;28;20237;-52
2023/02/04 09:48:21;;;;;;;1.27;0.97;;;8.20;99.90;;;;;;4956210;28;20648;-53
2023/02/04 09:50:47;;;;;;;1.10;1.00;;;8.00;99.90;;;;;;4960856;28;20182;-55
2023/02/04 09:53:20;;;;;;;0.90;0.90;;;8.00;99.00;;;;;;4950579;28;20234;-55
2023/02/04 09:55:46;;;;;;;0.70;0.70;;;7.30;99.90;;;;;;4955928;28;20179;-55
2023/02/04 09:58:17;;;;;;;0.80;0.80;;;7.70;99.90;;;;;;4955358;28;20202;-53
2023/02/04 10:00:45;;;;;;;0.90;0.90;;;7.70;99.90;;;;;;4956967;28;20209;-53
2023/02/04 10:03:15;;;;;;;1.00;1.00;;;7.90;97.20;;;;;;4955950;28;20182;-54
2023/02/04 10:05:42;;;;;;;1.47;1.37;;;7.90;98.50;;;;;;4965750;28;20226;-53
2023/02/04 10:08:34;;;;;;;1.10;1.10;;;7.80;99.90;;;;;;4955591;28;20229;-51
2023/02/04 10:11:00;;;;;;;1.00;1.00;;;;;;;;;;4954835;28;20202;-52
2023/02/04 10:13:32;;;;;;;1.00;1.00;;;7.60;99.90;;;;;;4948064;28;20215;-52
2023/02/04 10:15:58;;;;;;;1.63;1.27;;;8.10;99.70;;;;;;4951425;28;20654;-53
2023/02/04 10:18:33;;;;;;;5.10;2.30;;;8.10;99.90;;;;;;4947832;28;20202;-51
2023/02/04 10:21:19;;;;;;;1.30;1.30;;;8.30;99.90;;;;;;4946273;29;20185;-53
2023/02/04 10:23:52;;;;;;;1.10;1.10;;;7.90;99.90;;;;;;4947977;28;20197;-52
2023/02/04 10:26:20;;;;;;;1.40;1.30;;;8.20;94.00;;;;;;4955677;28;20187;-54
2023/02/04 10:28:47;;;;;;;1.40;1.30;;;8.40;99.90;;;;;;4955938;28;20171;-52
2023/02/04 10:31:37;;;;;;;1.60;1.50;;;8.30;99.90;;;;;;4955961;28;20170;-52
2023/02/04 10:34:22;;;;;;;2.60;2.40;;;8.70;94.60;;;;;;4955848;28;20202;-55
2023/02/04 10:36:49;;;;;;;3.20;2.90;;;10.00;99.90;;;;;;4955484;29;20559;-51
2023/02/04 10:39:15;;;;;;;3.40;3.10;;;12.80;92.80;;;;;;4952823;29;20265;-55
2023/02/04 10:41:55;;;;;;;3.83;3.53;;;15.80;96.70;;;;;;4952478;28;20641;-53
2023/02/04 10:44:34;;;;;;;3.80;3.50;;;19.10;83.00;;;;;;4936199;29;20207;-50
2023/02/04 10:47:29;;;;;;;2.28;2.17;;;22.40;85.00;;;;;;4943195;29;20218;-52
2023/02/04 10:50:01;;;;;;;1.73;1.63;;;24.00;53.80;;;;;;4954242;29;20745;-54
2023/02/04 10:52:36;;;;;;;3.00;2.80;;;25.00;67.60;;;;;;4955017;28;20180;-51
2023/02/04 10:55:05;;;;;;;2.55;2.35;;;27.00;61.50;;;;;;4957012;28;20203;-55
2023/02/04 10:57:34;;;;;;;0.60;0.60;;;28.40;56.80;;;;;;4953215;28;20230;-55
2023/02/04 11:00:02;;;;;;;0.88;0.88;;;29.90;40.70;;;;;;4951935;28;20197;-56
2023/02/04 11:02:40;;;;;;;0.60;0.60;;;29.80;43.90;;;;;;4953995;28;20658;-54
2023/02/04 11:05:17;;;;;;;0.50;0.50;;;29.40;37.90;;;;;;4954904;28;20735;-54
2023/02/04 11:07:44;;;;;;;3.83;3.53;;;29.70;48.90;;;;;;4955263;28;20210;-55
2023/02/04 11:10:22;;;;;;;2.17;2.08;;;30.50;35.60;;;;;;4955231;28;20181;-55
2023/02/04 11:12:54;;;;;;;3.05;2.85;;;31.70;46.30;;;;;;4954261;28;20190;-54
2023/02/04 11:16:13;;;;;;;3.42;3.17;;;33.10;43.10;;;;;;4954533;28;20564;-55
2023/02/04 11:18:50;;;;;;;4.13;3.83;;;33.10;40.30;;;;;;4895696;29;20287;-55
2023/02/04 11:21:48;;;;;;;1.65;1.55;;;33.40;41.20;;;;;;4895840;29;20195;-55
2023/02/04 11:24:14;;;;;;;0.50;0.40;;;33.20;34.70;;;;;;4895379;29;20200;-52
2023/02/04 11:26:47;;;;;;;0.40;0.40;;;31.90;39.30;;;;;;4895323;29;20211;-52
2023/02/04 11:29:15;;;;;;;0.68;0.68;;;30.70;39.90;;;;;;4895337;29;20188;-53
2023/02/04 11:31:55;;;;;;;0.63;0.63;;;30.40;41.80;;;;;;4892674;29;20576;-52
2023/02/04 11:34:20;;;;;;;1.27;1.13;;;29.30;42.00;;;;;;4895147;29;20196;-54
2023/02/04 11:36:58;;;;;;;0.55;0.55;;;28.70;42.80;;;;;;4894880;29;20237;-51
2023/02/04 11:39:41;;;;;;;2.60;1.02;;;27.60;29.40;;;;;;4895149;29;20187;-55
2023/02/04 11:42:22;;;;;;;0.55;0.55;;;27.30;44.20;;;;;;4895222;29;20184;-52
2023/02/04 11:44:50;;;;;;;0.45;0.45;;;27.30;29.70;;;;;;4894872;29;20191;-57
2023/02/04 11:47:15;;;;;;;0.50;0.50;;;26.90;43.50;;;;;;4894673;29;20224;-54
2023/02/04 11:49:42;;;;;;;0.90;0.57;;;27.30;44.70;;;;;;4895227;29;20616;-53
2023/02/04 11:52:13;;;;;;;0.45;0.45;;;26.60;44.90;;;;;;4917561;28;20197;-55
2023/02/04 11:54:38;;;;;;;0.60;0.60;;;26.60;36.90;;;;;;4957860;28;20203;-54
2023/02/04 11:57:04;;;;;;;0.50;0.50;;;;;;;;;;4953881;28;20214;-54
2023/02/04 11:59:31;;;;;;;0.60;0.60;;;;;;;;;;4954241;28;20177;-55
2023/02/04 12:02:05;;;;;;;0.60;0.60;;;27.50;29.50;;;;;;4952629;28;20266;-53
2023/02/04 12:04:31;;;;;;;0.50;0.50;;;;;;;;;;4953909;28;20244;-55
2023/02/04 12:06:59;;;;;;;0.47;0.47;;;26.70;28.90;;;;;;4953669;28;20551;-54
2023/02/04 12:09:26;;;;;;;0.65;0.55;;;26.50;43.90;;;;;;4954127;28;20183;-53
2023/02/04 12:11:53;;;;;;;0.80;0.80;;;24.50;44.30;;;;;;4953999;28;20209;-52
2023/02/04 12:14:19;;;;;;;1.98;0.52;;;22.60;45.20;;;;;;4953864;28;20200;-53
2023/02/04 12:16:46;;;;;;;0.57;0.43;;;21.60;47.20;;;;;;4953587;28;20195;-53
2023/02/04 12:19:12;;;;;;;1.63;1.48;;;21.10;34.90;;;;;;4953702;28;20178;-55
2023/02/04 12:21:38;;;;;;;1.05;0.73;;;21.50;48.90;;;;;;4953880;28;20250;-52
2023/02/04 12:24:04;;;;;;;0.98;0.90;;;20.60;48.70;;;;;;4953793;28;20220;-53
2023/02/04 12:26:30;;;;;;;0.57;0.57;;;;;;;;;;4959077;28;20613;-54
2023/02/04 12:28:58;;;;;;;1.03;0.90;;;;;;;;;;4963794;28;20580;-53
2023/02/04 12:31:24;;;;;;;1.60;1.17;;;18.70;41.20;;;;;;4952532;28;20701;-54
2023/02/04 12:33:50;;;;;;;0.70;0.70;;;17.40;51.50;;;;;;4952366;28;20297;-51
2023/02/04 12:36:15;;;;;;;0.90;0.87;;;16.80;52.80;;;;;;4953530;28;20178;-54
2023/02/04 12:38:41;;;;;;;0.80;0.80;;;16.40;53.60;;;;;;4953494;28;20191;-51
2023/02/04 12:41:07;;;;;;;1.00;1.00;;;;;;;;;;4960531;28;20182;-53
2023/02/04 12:43:33;;;;;;;0.70;0.70;;;;;;;;;;4953484;28;20253;-53
2023/02/04 12:45:58;;;;;;;1.30;1.20;;;15.20;58.00;;;;;;4961148;28;20189;-50
2023/02/04 12:48:24;;;;;;;1.10;1.00;;;14.20;58.50;;;;;;4953355;28;20316;-52
2023/02/04 12:50:50;;;;;;;0.90;0.90;;;14.50;60.80;;;;;;4961497;28;20173;-52
2023/02/04 12:53:15;;;;;;;1.13;0.90;;;14.00;59.20;;;;;;4961430;28;20174;-56
2023/02/04 12:55:41;;;;;;;0.97;0.97;;;;;;;;;;4953196;28;20582;-55
2023/02/04 12:58:07;;;;;;;1.30;0.90;;;;;;;;;;4953239;28;20206;-55
2023/02/04 13:00:33;;;;;;;1.63;0.80;;;12.30;62.30;;;;;;4953367;28;20254;-52
2023/02/04 13:02:59;;;;;;;0.70;0.70;;;12.20;63.10;;;;;;4953282;28;20182;-53
2023/02/04 13:05:25;;;;;;;0.97;0.90;;;11.90;54.50;;;;;;4953028;28;20200;-52
2023/02/04 13:07:51;;;;;;;1.03;1.00;;;11.90;53.00;;;;;;4956838;28;20198;-53
2023/02/04 13:10:17;;;;;;;0.73;0.73;;;;;;;;;;4957072;28;20207;-51
2023/02/04 13:12:42;;;;;;;0.67;0.67;;;11.80;56.20;;;;;;4959178;28;20645;-51
2023/02/04 13:15:09;;;;;;;1.00;0.80;;;11.70;46.10;;;;;;4956380;28;20210;-54
2023/02/04 13:17:35;;;;;;;0.90;0.90;;;11.60;65.70;;;;;;4957068;28;20205;-54
2023/02/04 13:20:01;;;;;;;0.80;0.80;;;;;;;;;;4957063;28;20186;-54
2023/02/04 13:22:27;;;;;;;1.20;1.10;;;;;;;;;;4957048;28;20182;-54
2023/02/04 13:24:53;;;;;;;1.20;1.07;;;;;;;;;;4956619;28;20210;-55